sensor_id;sensor_type;location;lat;lon;timestamp;P1;durP1;ratioP1;P2;durP2;ratioP2
45382;SDS011;42455;51.660;5.824;2022-12-29T00:00:38;2.0;;;2.0;;
45382;SDS011;42455;51.660;5.824;2022-12-29T00:05:45;2.0;;;2.0;;
45382;SDS011;42455;51.660;5.824;2022-12-29T00:10:51;2.0;;;2.0;;
45382;SDS011;42455;51.660;5.824;2022-12-29T00:15:57;2.0;;;2.0;;
45382;SDS011;42455;51.660;5.824;2022-12-29T00:21:03;1.0;;;1.0;;
45382;SDS011;42455;51.660;5.824;2022-12-29T00:26:12;1.0;;;1.0;;
45382;SDS011;42455;51.660;5.824;2022-12-29T00:31:16;1.0;;;1.0;;
45382;SDS011;42455;51.660;5.824;2022-12-29T00:36:23;1.0;;;0.0;;
45382;SDS011;42455;51.660;5.824;2022-12-29T00:41:28;1.0;;;0.0;;
45382;SDS011;42455;51.660;5.824;2022-12-29T00:46:35;0.5;;;0.0;;
45382;SDS011;42455;51.660;5.824;2022-12-29T00:51:41;0.0;;;0.0;;
45382;SDS011;42455;51.660;5.824;2022-12-29T00:56:47;1.0;;;0.0;;
45382;SDS011;42455;51.660;5.824;2022-12-29T01:01:53;0.0;;;0.0;;
45382;SDS011;42455;51.660;5.824;2022-12-29T01:06:59;1.0;;;1.0;;
45382;SDS011;42455;51.660;5.824;2022-12-29T01:12:06;1.0;;;1.0;;
45382;SDS011;42455;51.660;5.824;2022-12-29T01:17:11;2.0;;;2.0;;
45382;SDS011;42455;51.660;5.824;2022-12-29T01:22:18;2.0;;;2.0;;
45382;SDS011;42455;51.660;5.824;2022-12-29T01:27:24;2.0;;;2.0;;
45382;SDS011;42455;51.660;5.824;2022-12-29T01:32:30;2.0;;;1.0;;
45382;SDS011;42455;51.660;5.824;2022-12-29T01:37:36;1.0;;;1.0;;
45382;SDS011;42455;51.660;5.824;2022-12-29T01:42:42;1.0;;;1.0;;
45382;SDS011;42455;51.660;5.824;2022-12-29T01:47:49;2.0;;;1.0;;
45382;SDS011;42455;51.660;5.824;2022-12-29T01:53:07;1.0;;;1.0;;
45382;SDS011;42455;51.660;5.824;2022-12-29T01:58:02;2.0;;;1.0;;
45382;SDS011;42455;51.660;5.824;2022-12-29T02:03:08;1.0;;;1.0;;
45382;SDS011;42455;51.660;5.824;2022-12-29T02:08:14;1.0;;;1.0;;
45382;SDS011;42455;51.660;5.824;2022-12-29T02:13:20;1.0;;;1.0;;
45382;SDS011;42455;51.660;5.824;2022-12-29T02:19:38;1.5;;;1.0;;
45382;SDS011;42455;51.660;5.824;2022-12-29T02:26:58;1.0;;;0.0;;
45382;SDS011;42455;51.660;5.824;2022-12-29T02:31:58;1.0;;;1.0;;
45382;SDS011;42455;51.660;5.824;2022-12-29T02:36:59;2.0;;;1.0;;
45382;SDS011;42455;51.660;5.824;2022-12-29T02:41:55;2.0;;;1.0;;
45382;SDS011;42455;51.660;5.824;2022-12-29T02:46:12;1.0;;;0.0;;
45382;SDS011;42455;51.660;5.824;2022-12-29T02:50:18;1.0;;;0.0;;
45382;SDS011;42455;51.660;5.824;2022-12-29T02:54:10;1.5;;;1.0;;
45382;SDS011;42455;51.660;5.824;2022-12-29T02:59:16;1.0;;;0.0;;
45382;SDS011;42455;51.660;5.824;2022-12-29T03:05:14;1.0;;;0.0;;
45382;SDS011;42455;51.660;5.824;2022-12-29T03:10:57;2.0;;;1.0;;
45382;SDS011;42455;51.660;5.824;2022-12-29T03:14:47;1.0;;;1.0;;
45382;SDS011;42455;51.660;5.824;2022-12-29T03:19:44;1.0;;;1.0;;
45382;SDS011;42455;51.660;5.824;2022-12-29T03:24:47;2.0;;;1.0;;
45382;SDS011;42455;51.660;5.824;2022-12-29T03:29:58;2.0;;;1.0;;
45382;SDS011;42455;51.660;5.824;2022-12-29T03:34:59;2.0;;;1.0;;
45382;SDS011;42455;51.660;5.824;2022-12-29T03:40:06;1.0;;;0.0;;
45382;SDS011;42455;51.660;5.824;2022-12-29T03:45:11;1.0;;;0.5;;
45382;SDS011;42455;51.660;5.824;2022-12-29T03:50:18;1.0;;;1.0;;
45382;SDS011;42455;51.660;5.824;2022-12-29T03:55:24;2.0;;;0.0;;
45382;SDS011;42455;51.660;5.824;2022-12-29T04:00:30;1.0;;;1.0;;
45382;SDS011;42455;51.660;5.824;2022-12-29T04:05:36;1.0;;;0.0;;
45382;SDS011;42455;51.660;5.824;2022-12-29T04:10:43;2.0;;;1.0;;
45382;SDS011;42455;51.660;5.824;2022-12-29T04:15:49;3.0;;;1.0;;
45382;SDS011;42455;51.660;5.824;2022-12-29T04:20:55;1.0;;;0.0;;
45382;SDS011;42455;51.660;5.824;2022-12-29T04:26:01;2.0;;;0.0;;
45382;SDS011;42455;51.660;5.824;2022-12-29T04:31:07;3.0;;;1.0;;
45382;SDS011;42455;51.660;5.824;2022-12-29T04:36:14;2.0;;;0.0;;
45382;SDS011;42455;51.660;5.824;2022-12-29T04:41:20;2.0;;;0.0;;
45382;SDS011;42455;51.660;5.824;2022-12-29T04:46:25;2.0;;;0.0;;
45382;SDS011;42455;51.660;5.824;2022-12-29T04:51:31;2.0;;;1.0;;
45382;SDS011;42455;51.660;5.824;2022-12-29T04:56:37;2.0;;;0.0;;
45382;SDS011;42455;51.660;5.824;2022-12-29T05:01:44;3.0;;;0.5;;
45382;SDS011;42455;51.660;5.824;2022-12-29T05:06:50;3.0;;;1.0;;
45382;SDS011;42455;51.660;5.824;2022-12-29T05:11:56;2.0;;;0.0;;
45382;SDS011;42455;51.660;5.824;2022-12-29T05:17:02;3.0;;;0.0;;
45382;SDS011;42455;51.660;5.824;2022-12-29T05:22:08;3.0;;;1.0;;
45382;SDS011;42455;51.660;5.824;2022-12-29T05:27:15;3.0;;;1.0;;
45382;SDS011;42455;51.660;5.824;2022-12-29T05:32:21;3.0;;;1.0;;
45382;SDS011;42455;51.660;5.824;2022-12-29T05:37:27;3.0;;;1.0;;
45382;SDS011;42455;51.660;5.824;2022-12-29T05:42:33;5.0;;;1.0;;
45382;SDS011;42455;51.660;5.824;2022-12-29T05:47:40;2.0;;;1.0;;
45382;SDS011;42455;51.660;5.824;2022-12-29T05:52:46;2.0;;;1.0;;
45382;SDS011;42455;51.660;5.824;2022-12-29T05:57:52;4.0;;;1.0;;
45382;SDS011;42455;51.660;5.824;2022-12-29T06:02:58;3.0;;;1.0;;
45382;SDS011;42455;51.660;5.824;2022-12-29T06:08:04;3.0;;;1.0;;
45382;SDS011;42455;51.660;5.824;2022-12-29T06:13:11;3.0;;;1.0;;
45382;SDS011;42455;51.660;5.824;2022-12-29T06:18:17;4.0;;;1.0;;
45382;SDS011;42455;51.660;5.824;2022-12-29T06:23:23;3.0;;;1.0;;
45382;SDS011;42455;51.660;5.824;2022-12-29T06:28:29;3.0;;;1.0;;
45382;SDS011;42455;51.660;5.824;2022-12-29T06:33:35;3.0;;;1.0;;
45382;SDS011;42455;51.660;5.824;2022-12-29T06:38:42;2.5;;;1.0;;
45382;SDS011;42455;51.660;5.824;2022-12-29T06:43:48;3.0;;;1.0;;
45382;SDS011;42455;51.660;5.824;2022-12-29T06:48:54;4.0;;;1.0;;
45382;SDS011;42455;51.660;5.824;2022-12-29T06:54:00;3.0;;;1.0;;
45382;SDS011;42455;51.660;5.824;2022-12-29T06:59:06;3.0;;;1.0;;
45382;SDS011;42455;51.660;5.824;2022-12-29T07:04:13;4.0;;;1.0;;
45382;SDS011;42455;51.660;5.824;2022-12-29T07:09:19;3.0;;;1.0;;
45382;SDS011;42455;51.660;5.824;2022-12-29T07:14:25;3.0;;;1.0;;
45382;SDS011;42455;51.660;5.824;2022-12-29T07:19:31;4.0;;;1.0;;
45382;SDS011;42455;51.660;5.824;2022-12-29T07:24:37;3.0;;;1.0;;
45382;SDS011;42455;51.660;5.824;2022-12-29T07:29:44;4.0;;;1.0;;
45382;SDS011;42455;51.660;5.824;2022-12-29T07:34:50;5.0;;;1.0;;
45382;SDS011;42455;51.660;5.824;2022-12-29T07:39:56;4.0;;;1.0;;
45382;SDS011;42455;51.660;5.824;2022-12-29T07:45:02;4.0;;;1.0;;
45382;SDS011;42455;51.660;5.824;2022-12-29T07:50:08;3.0;;;1.0;;
45382;SDS011;42455;51.660;5.824;2022-12-29T07:55:15;4.0;;;1.0;;
45382;SDS011;42455;51.660;5.824;2022-12-29T08:00:21;4.0;;;1.0;;
45382;SDS011;42455;51.660;5.824;2022-12-29T08:05:27;5.0;;;1.0;;
45382;SDS011;42455;51.660;5.824;2022-12-29T08:10:33;4.0;;;1.0;;
45382;SDS011;42455;51.660;5.824;2022-12-29T08:15:39;6.0;;;1.0;;
45382;SDS011;42455;51.660;5.824;2022-12-29T08:20:46;5.0;;;1.0;;
45382;SDS011;42455;51.660;5.824;2022-12-29T08:25:56;5.0;;;1.0;;
45382;SDS011;42455;51.660;5.824;2022-12-29T08:30:58;7.0;;;2.0;;
45382;SDS011;42455;51.660;5.824;2022-12-29T08:36:05;4.5;;;1.0;;
45382;SDS011;42455;51.660;5.824;2022-12-29T08:41:11;5.0;;;1.0;;
45382;SDS011;42455;51.660;5.824;2022-12-29T08:46:17;6.0;;;1.0;;
45382;SDS011;42455;51.660;5.824;2022-12-29T08:51:23;6.5;;;2.0;;
45382;SDS011;42455;51.660;5.824;2022-12-29T08:56:29;6.0;;;1.0;;
45382;SDS011;42455;51.660;5.824;2022-12-29T09:01:35;5.0;;;1.0;;
45382;SDS011;42455;51.660;5.824;2022-12-29T09:06:42;6.0;;;2.0;;
45382;SDS011;42455;51.660;5.824;2022-12-29T09:11:48;5.5;;;1.0;;
45382;SDS011;42455;51.660;5.824;2022-12-29T09:16:54;6.0;;;2.0;;
45382;SDS011;42455;51.660;5.824;2022-12-29T09:22:00;5.0;;;2.0;;
45382;SDS011;42455;51.660;5.824;2022-12-29T09:27:06;4.0;;;1.0;;
45382;SDS011;42455;51.660;5.824;2022-12-29T09:32:13;5.5;;;1.0;;
45382;SDS011;42455;51.660;5.824;2022-12-29T09:37:19;4.0;;;1.0;;
45382;SDS011;42455;51.660;5.824;2022-12-29T09:42:53;6.0;;;1.0;;
45382;SDS011;42455;51.660;5.824;2022-12-29T09:47:31;5.0;;;1.0;;
45382;SDS011;42455;51.660;5.824;2022-12-29T09:52:47;5.0;;;1.0;;
45382;SDS011;42455;51.660;5.824;2022-12-29T09:57:56;4.0;;;1.0;;
45382;SDS011;42455;51.660;5.824;2022-12-29T10:02:51;5.0;;;1.0;;
45382;SDS011;42455;51.660;5.824;2022-12-29T10:08:16;5.0;;;1.0;;
45382;SDS011;42455;51.660;5.824;2022-12-29T10:13:55;5.0;;;1.0;;
45382;SDS011;42455;51.660;5.824;2022-12-29T10:19:55;5.0;;;1.0;;
45382;SDS011;42455;51.660;5.824;2022-12-29T10:24:06;3.0;;;1.0;;
45382;SDS011;42455;51.660;5.824;2022-12-29T10:28:20;5.0;;;1.0;;
45382;SDS011;42455;51.660;5.824;2022-12-29T10:33:35;5.0;;;1.0;;
45382;SDS011;42455;51.660;5.824;2022-12-29T10:38:34;4.0;;;1.0;;
45382;SDS011;42455;51.660;5.824;2022-12-29T10:43:46;5.0;;;1.0;;
45382;SDS011;42455;51.660;5.824;2022-12-29T10:48:44;6.0;;;1.0;;
45382;SDS011;42455;51.660;5.824;2022-12-29T10:53:52;5.0;;;1.0;;
45382;SDS011;42455;51.660;5.824;2022-12-29T10:58:57;4.5;;;2.0;;
45382;SDS011;42455;51.660;5.824;2022-12-29T11:04:35;5.0;;;1.0;;
45382;SDS011;42455;51.660;5.824;2022-12-29T11:09:15;5.0;;;1.0;;
45382;SDS011;42455;51.660;5.824;2022-12-29T11:14:20;4.0;;;1.0;;
45382;SDS011;42455;51.660;5.824;2022-12-29T11:19:23;6.0;;;1.0;;
45382;SDS011;42455;51.660;5.824;2022-12-29T11:24:28;5.0;;;1.0;;
45382;SDS011;42455;51.660;5.824;2022-12-29T11:29:38;6.0;;;1.0;;
45382;SDS011;42455;51.660;5.824;2022-12-29T11:34:40;5.0;;;1.0;;
45382;SDS011;42455;51.660;5.824;2022-12-29T11:39:55;5.0;;;1.0;;
45382;SDS011;42455;51.660;5.824;2022-12-29T11:44:52;5.0;;;1.0;;
45382;SDS011;42455;51.660;5.824;2022-12-29T11:49:59;6.0;;;2.0;;
45382;SDS011;42455;51.660;5.824;2022-12-29T11:55:18;5.0;;;2.0;;
45382;SDS011;42455;51.660;5.824;2022-12-29T12:00:16;7.0;;;2.0;;
45382;SDS011;42455;51.660;5.824;2022-12-29T12:05:21;6.0;;;2.0;;
45382;SDS011;42455;51.660;5.824;2022-12-29T12:10:25;6.0;;;2.0;;
45382;SDS011;42455;51.660;5.824;2022-12-29T12:15:30;7.0;;;2.0;;
45382;SDS011;42455;51.660;5.824;2022-12-29T12:20:45;6.0;;;2.0;;
45382;SDS011;42455;51.660;5.824;2022-12-29T12:25:54;6.0;;;2.0;;
45382;SDS011;42455;51.660;5.824;2022-12-29T12:30:48;6.0;;;2.0;;
45382;SDS011;42455;51.660;5.824;2022-12-29T12:36:25;7.0;;;2.0;;
45382;SDS011;42455;51.660;5.824;2022-12-29T12:41:57;7.0;;;2.0;;
45382;SDS011;42455;51.660;5.824;2022-12-29T12:48:17;9.0;;;2.0;;
45382;SDS011;42455;51.660;5.824;2022-12-29T12:54:38;8.0;;;2.0;;
45382;SDS011;42455;51.660;5.824;2022-12-29T13:00:13;7.0;;;2.0;;
45382;SDS011;42455;51.660;5.824;2022-12-29T13:04:52;7.0;;;2.0;;
45382;SDS011;42455;51.660;5.824;2022-12-29T13:10:35;6.0;;;2.0;;
45382;SDS011;42455;51.660;5.824;2022-12-29T13:16:12;8.0;;;2.0;;
45382;SDS011;42455;51.660;5.824;2022-12-29T13:21:30;6.0;;;2.0;;
45382;SDS011;42455;51.660;5.824;2022-12-29T13:27:06;5.0;;;1.0;;
45382;SDS011;42455;51.660;5.824;2022-12-29T13:30:35;6.0;;;2.0;;
45382;SDS011;42455;51.660;5.824;2022-12-29T13:36:21;5.5;;;1.0;;
45382;SDS011;42455;51.660;5.824;2022-12-29T13:39:19;6.0;;;2.0;;
45382;SDS011;42455;51.660;5.824;2022-12-29T13:42:15;5.5;;;2.0;;
45382;SDS011;42455;51.660;5.824;2022-12-29T13:52:51;5.0;;;1.0;;
45382;SDS011;42455;51.660;5.824;2022-12-29T13:57:41;5.0;;;1.0;;
45382;SDS011;42455;51.660;5.824;2022-12-29T14:03:17;5.0;;;2.0;;
45382;SDS011;42455;51.660;5.824;2022-12-29T14:07:46;6.5;;;2.0;;
45382;SDS011;42455;51.660;5.824;2022-12-29T14:12:52;7.0;;;2.0;;
45382;SDS011;42455;51.660;5.824;2022-12-29T14:18:10;6.0;;;2.0;;
45382;SDS011;42455;51.660;5.824;2022-12-29T14:23:43;5.0;;;1.5;;
45382;SDS011;42455;51.660;5.824;2022-12-29T14:28:22;5.0;;;1.0;;
45382;SDS011;42455;51.660;5.824;2022-12-29T14:33:17;5.0;;;1.0;;
45382;SDS011;42455;51.660;5.824;2022-12-29T14:38:26;4.0;;;1.0;;
45382;SDS011;42455;51.660;5.824;2022-12-29T14:43:29;5.0;;;2.0;;
45382;SDS011;42455;51.660;5.824;2022-12-29T14:48:44;7.0;;;2.0;;
45382;SDS011;42455;51.660;5.824;2022-12-29T14:53:51;6.5;;;2.0;;
45382;SDS011;42455;51.660;5.824;2022-12-29T14:58:53;6.0;;;2.0;;
45382;SDS011;42455;51.660;5.824;2022-12-29T15:04:03;6.0;;;2.0;;
45382;SDS011;42455;51.660;5.824;2022-12-29T15:09:01;7.0;;;2.0;;
45382;SDS011;42455;51.660;5.824;2022-12-29T15:19:21;7.0;;;2.0;;
45382;SDS011;42455;51.660;5.824;2022-12-29T15:24:19;7.0;;;2.0;;
45382;SDS011;42455;51.660;5.824;2022-12-29T15:29:40;6.0;;;2.0;;
45382;SDS011;42455;51.660;5.824;2022-12-29T15:34:31;6.0;;;2.0;;
45382;SDS011;42455;51.660;5.824;2022-12-29T15:39:38;6.0;;;2.0;;
45382;SDS011;42455;51.660;5.824;2022-12-29T15:44:44;5.5;;;2.0;;
45382;SDS011;42455;51.660;5.824;2022-12-29T15:49:51;5.0;;;1.0;;
45382;SDS011;42455;51.660;5.824;2022-12-29T15:54:56;5.0;;;1.0;;
45382;SDS011;42455;51.660;5.824;2022-12-29T16:00:03;4.0;;;1.0;;
45382;SDS011;42455;51.660;5.824;2022-12-29T16:05:09;3.0;;;1.0;;
45382;SDS011;42455;51.660;5.824;2022-12-29T16:10:36;3.0;;;1.0;;
45382;SDS011;42455;51.660;5.824;2022-12-29T16:15:21;3.0;;;1.0;;
45382;SDS011;42455;51.660;5.824;2022-12-29T16:20:31;4.0;;;1.0;;
45382;SDS011;42455;51.660;5.824;2022-12-29T16:25:35;3.0;;;1.0;;
45382;SDS011;42455;51.660;5.824;2022-12-29T16:30:39;2.0;;;1.0;;
45382;SDS011;42455;51.660;5.824;2022-12-29T16:35:46;2.0;;;1.0;;
45382;SDS011;42455;51.660;5.824;2022-12-29T16:40:53;3.0;;;1.0;;
45382;SDS011;42455;51.660;5.824;2022-12-29T16:46:30;3.0;;;1.0;;
45382;SDS011;42455;51.660;5.824;2022-12-29T16:51:06;4.0;;;1.0;;
45382;SDS011;42455;51.660;5.824;2022-12-29T16:56:13;4.0;;;1.0;;
45382;SDS011;42455;51.660;5.824;2022-12-29T17:01:16;3.0;;;1.0;;
45382;SDS011;42455;51.660;5.824;2022-12-29T17:06:22;3.0;;;1.0;;
45382;SDS011;42455;51.660;5.824;2022-12-29T17:11:29;3.0;;;1.0;;
45382;SDS011;42455;51.660;5.824;2022-12-29T17:16:35;4.0;;;1.0;;
45382;SDS011;42455;51.660;5.824;2022-12-29T17:21:41;4.5;;;1.0;;
45382;SDS011;42455;51.660;5.824;2022-12-29T17:26:48;5.0;;;1.0;;
45382;SDS011;42455;51.660;5.824;2022-12-29T17:31:53;5.0;;;2.0;;
45382;SDS011;42455;51.660;5.824;2022-12-29T17:36:59;3.0;;;1.0;;
45382;SDS011;42455;51.660;5.824;2022-12-29T17:42:06;4.0;;;1.0;;
45382;SDS011;42455;51.660;5.824;2022-12-29T17:47:12;4.0;;;1.0;;
45382;SDS011;42455;51.660;5.824;2022-12-29T17:52:18;4.0;;;1.0;;
45382;SDS011;42455;51.660;5.824;2022-12-29T17:57:24;5.0;;;2.0;;
45382;SDS011;42455;51.660;5.824;2022-12-29T18:02:31;5.0;;;2.0;;
45382;SDS011;42455;51.660;5.824;2022-12-29T18:07:37;6.0;;;2.0;;
45382;SDS011;42455;51.660;5.824;2022-12-29T18:12:48;7.0;;;1.0;;
45382;SDS011;42455;51.660;5.824;2022-12-29T18:17:49;7.0;;;2.0;;
45382;SDS011;42455;51.660;5.824;2022-12-29T18:22:55;6.5;;;2.0;;
45382;SDS011;42455;51.660;5.824;2022-12-29T18:28:01;6.5;;;2.0;;
45382;SDS011;42455;51.660;5.824;2022-12-29T18:33:12;7.0;;;2.0;;
45382;SDS011;42455;51.660;5.824;2022-12-29T18:38:14;6.0;;;2.0;;
45382;SDS011;42455;51.660;5.824;2022-12-29T18:43:20;5.0;;;2.0;;
45382;SDS011;42455;51.660;5.824;2022-12-29T18:48:26;5.0;;;2.0;;
45382;SDS011;42455;51.660;5.824;2022-12-29T18:53:33;10.0;;;2.0;;
45382;SDS011;42455;51.660;5.824;2022-12-29T18:58:39;7.0;;;2.0;;
45382;SDS011;42455;51.660;5.824;2022-12-29T19:03:45;10.0;;;3.0;;
45382;SDS011;42455;51.660;5.824;2022-12-29T19:08:51;8.0;;;2.0;;
45382;SDS011;42455;51.660;5.824;2022-12-29T19:13:58;9.0;;;2.0;;
45382;SDS011;42455;51.660;5.824;2022-12-29T19:19:04;7.0;;;2.0;;
45382;SDS011;42455;51.660;5.824;2022-12-29T19:24:10;8.5;;;2.0;;
45382;SDS011;42455;51.660;5.824;2022-12-29T19:29:16;10.0;;;3.0;;
45382;SDS011;42455;51.660;5.824;2022-12-29T19:34:22;10.0;;;3.0;;
45382;SDS011;42455;51.660;5.824;2022-12-29T19:39:28;11.0;;;3.0;;
45382;SDS011;42455;51.660;5.824;2022-12-29T19:44:35;9.0;;;3.0;;
45382;SDS011;42455;51.660;5.824;2022-12-29T19:49:41;8.0;;;3.0;;
45382;SDS011;42455;51.660;5.824;2022-12-29T19:54:47;8.0;;;3.0;;
45382;SDS011;42455;51.660;5.824;2022-12-29T19:59:53;10.0;;;3.0;;
45382;SDS011;42455;51.660;5.824;2022-12-29T20:04:59;9.0;;;3.0;;
45382;SDS011;42455;51.660;5.824;2022-12-29T20:10:06;9.0;;;3.0;;
45382;SDS011;42455;51.660;5.824;2022-12-29T20:15:13;9.0;;;3.0;;
45382;SDS011;42455;51.660;5.824;2022-12-29T20:20:18;8.0;;;3.0;;
45382;SDS011;42455;51.660;5.824;2022-12-29T20:25:24;10.0;;;4.0;;
45382;SDS011;42455;51.660;5.824;2022-12-29T20:30:30;11.0;;;4.0;;
45382;SDS011;42455;51.660;5.824;2022-12-29T20:35:37;8.5;;;3.0;;
45382;SDS011;42455;51.660;5.824;2022-12-29T20:40:43;9.0;;;3.0;;
45382;SDS011;42455;51.660;5.824;2022-12-29T20:45:49;8.0;;;2.0;;
45382;SDS011;42455;51.660;5.824;2022-12-29T20:50:55;9.0;;;3.0;;
45382;SDS011;42455;51.660;5.824;2022-12-29T20:56:02;8.0;;;2.0;;
45382;SDS011;42455;51.660;5.824;2022-12-29T21:01:10;9.0;;;2.0;;
45382;SDS011;42455;51.660;5.824;2022-12-29T21:06:14;10.0;;;2.0;;
45382;SDS011;42455;51.660;5.824;2022-12-29T21:11:20;8.0;;;2.0;;
45382;SDS011;42455;51.660;5.824;2022-12-29T21:16:26;7.0;;;2.0;;
45382;SDS011;42455;51.660;5.824;2022-12-29T21:21:33;8.0;;;3.0;;
45382;SDS011;42455;51.660;5.824;2022-12-29T21:26:39;7.0;;;2.0;;
45382;SDS011;42455;51.660;5.824;2022-12-29T21:31:45;8.5;;;3.0;;
45382;SDS011;42455;51.660;5.824;2022-12-29T21:36:51;8.0;;;2.0;;
45382;SDS011;42455;51.660;5.824;2022-12-29T21:41:57;8.0;;;2.0;;
45382;SDS011;42455;51.660;5.824;2022-12-29T21:47:04;7.0;;;2.0;;
45382;SDS011;42455;51.660;5.824;2022-12-29T21:52:09;6.0;;;2.0;;
45382;SDS011;42455;51.660;5.824;2022-12-29T21:57:16;6.0;;;2.0;;
45382;SDS011;42455;51.660;5.824;2022-12-29T22:02:23;8.5;;;2.0;;
45382;SDS011;42455;51.660;5.824;2022-12-29T22:07:28;7.0;;;2.0;;
45382;SDS011;42455;51.660;5.824;2022-12-29T22:12:34;7.0;;;2.0;;
45382;SDS011;42455;51.660;5.824;2022-12-29T22:17:40;7.5;;;2.0;;
45382;SDS011;42455;51.660;5.824;2022-12-29T22:22:46;9.0;;;2.0;;
45382;SDS011;42455;51.660;5.824;2022-12-29T22:27:52;8.0;;;2.0;;
45382;SDS011;42455;51.660;5.824;2022-12-29T22:32:59;7.0;;;2.0;;
45382;SDS011;42455;51.660;5.824;2022-12-29T22:38:05;9.0;;;2.0;;
45382;SDS011;42455;51.660;5.824;2022-12-29T22:43:11;9.0;;;3.0;;
45382;SDS011;42455;51.660;5.824;2022-12-29T22:48:17;9.0;;;2.0;;
45382;SDS011;42455;51.660;5.824;2022-12-29T22:53:23;7.5;;;2.0;;
45382;SDS011;42455;51.660;5.824;2022-12-29T22:58:30;6.0;;;2.0;;
45382;SDS011;42455;51.660;5.824;2022-12-29T23:03:36;10.0;;;2.0;;
45382;SDS011;42455;51.660;5.824;2022-12-29T23:08:42;6.5;;;2.0;;
45382;SDS011;42455;51.660;5.824;2022-12-29T23:13:48;6.0;;;2.0;;
45382;SDS011;42455;51.660;5.824;2022-12-29T23:18:54;7.0;;;2.0;;
45382;SDS011;42455;51.660;5.824;2022-12-29T23:24:01;7.0;;;2.0;;
45382;SDS011;42455;51.660;5.824;2022-12-29T23:29:08;8.0;;;2.0;;
45382;SDS011;42455;51.660;5.824;2022-12-29T23:34:14;8.0;;;2.0;;
45382;SDS011;42455;51.660;5.824;2022-12-29T23:39:20;8.0;;;2.0;;
45382;SDS011;42455;51.660;5.824;2022-12-29T23:44:25;7.5;;;2.0;;
45382;SDS011;42455;51.660;5.824;2022-12-29T23:49:32;6.0;;;2.0;;
45382;SDS011;42455;51.660;5.824;2022-12-29T23:54:38;7.0;;;2.0;;
45382;SDS011;42455;51.660;5.824;2022-12-29T23:59:44;7.0;;;2.0;;
